Terminal Aerodrome Forecast
Issued by NWS Charleston, WV

Current Version | Previous Version | Graphics & Text | Print | Product List | Glossary On
Versions: 1 2 3 4 5 6 7 8 9 10 11 12 13 14 15 16 17 18 19 20 21 22 23 24 25
000
FTUS41 KRLX 051302 AAA
TAFEKN
TAF AMD
KEKN 051302Z 0513/0612 00000KT 2SM BR BKN003
     FM051400 VRB03KT P6SM SCT150
     FM052000 VRB03KT P6SM BKN070
     FM052200 VRB03KT 6SM SHRA BKN060
     FM060100 00000KT 3SM SHRA BR BKN050=

USA.gov is the U.S. government's official web portal to all federal, state and local government web resources and services.